createdAt,value
2019-04-14T00:01:02.397Z,17.50
2019-04-14T00:03:48.150Z,15.13
2019-04-14T00:06:20.762Z,14.73
2019-04-14T00:08:52.436Z,15.37
2019-04-14T00:11:24.237Z,16.50
2019-04-14T00:13:56.715Z,16.00
2019-04-14T00:16:33.463Z,15.87
2019-04-14T00:19:06.466Z,15.27
2019-04-14T00:21:38.918Z,17.30
2019-04-14T00:24:11.643Z,15.90
2019-04-14T00:26:44.506Z,15.77
2019-04-14T00:29:17.298Z,17.40
2019-04-14T00:31:51.088Z,15.90
2019-04-14T00:34:37.686Z,16.67
2019-04-14T00:37:29.423Z,17.60
2019-04-14T00:40:10.508Z,15.30
2019-04-14T00:42:58.160Z,17.43
2019-04-14T00:45:42.648Z,17.40
2019-04-14T00:48:16.604Z,17.50
2019-04-14T00:50:47.417Z,16.07
2019-04-14T00:53:19.208Z,17.77
2019-04-14T00:55:51.155Z,16.70
2019-04-14T00:58:23.659Z,16.27
2019-04-14T01:00:55.830Z,16.53
2019-04-14T01:03:28.696Z,16.67
2019-04-14T01:06:01.164Z,17.50
2019-04-14T01:08:33.502Z,16.20
2019-04-14T01:11:05.623Z,16.17
2019-04-14T01:13:37.530Z,15.70
2019-04-14T01:16:16.596Z,17.10
2019-04-14T01:18:51.633Z,17.17
2019-04-14T01:21:26.308Z,16.67
2019-04-14T01:23:58.911Z,16.93
2019-04-14T01:26:31.072Z,17.73
2019-04-14T01:29:03.628Z,16.97
2019-04-14T01:31:36.163Z,16.87
2019-04-14T01:34:08.393Z,17.30
2019-04-14T01:36:40.896Z,17.70
2019-04-14T01:39:13.292Z,18.00
2019-04-14T01:41:45.636Z,18.30
2019-04-14T01:44:19.920Z,16.40
2019-04-14T01:46:52.099Z,16.80
2019-04-14T01:49:24.701Z,17.90
2019-04-14T01:52:16.750Z,16.83
2019-04-14T01:55:06.948Z,16.63
2019-04-14T01:57:50.232Z,17.40
2019-04-14T02:00:53.063Z,16.90
2019-04-14T02:03:25.736Z,16.47
2019-04-14T02:05:58.251Z,17.40
2019-04-14T02:08:30.809Z,15.77
2019-04-14T02:11:02.992Z,15.97
2019-04-14T02:13:35.438Z,17.27
2019-04-14T02:16:18.793Z,13.87
2019-04-14T02:18:40.618Z,16.40
2019-04-14T02:21:12.863Z,15.97
2019-04-14T02:23:45.378Z,16.87
2019-04-14T02:26:17.664Z,17.10
2019-04-14T02:28:50.422Z,16.33
2019-04-14T02:31:45.350Z,15.83
2019-04-14T02:34:29.909Z,16.80
2019-04-14T02:36:56.864Z,15.50
2019-04-14T02:39:29.366Z,17.30
2019-04-14T02:44:37.459Z,16.43
2019-04-14T02:47:27.079Z,15.50
2019-04-14T02:49:45.595Z,15.73
2019-04-14T02:57:23.099Z,17.40
2019-04-14T02:59:58.789Z,15.47
2019-04-14T03:07:36.306Z,15.17
2019-04-14T03:10:12.602Z,16.17
2019-04-14T03:15:17.741Z,16.27
2019-04-14T03:18:24.748Z,15.70
2019-04-14T03:21:13.411Z,15.03
2019-04-14T03:29:21.034Z,15.57
2019-04-14T03:39:40.513Z,16.20
2019-04-14T03:42:17.164Z,16.20
2019-04-14T03:47:21.673Z,16.87
2019-04-14T03:52:21.703Z,17.33
2019-04-14T03:54:51.019Z,16.47
2019-04-14T03:57:04.783Z,16.07
2019-04-14T03:59:36.771Z,17.90
2019-04-14T04:02:09.639Z,16.80
2019-04-14T04:04:42.272Z,15.30
2019-04-14T04:07:14.953Z,16.60
2019-04-14T04:09:58.261Z,18.33
2019-04-14T04:12:31.331Z,17.70
2019-04-14T04:15:03.944Z,18.13
2019-04-14T04:18:13.415Z,17.07
2019-04-14T04:21:05.183Z,17.77
2019-04-14T04:23:53.595Z,17.60
2019-04-14T04:26:34.795Z,16.90
2019-04-14T04:29:41.983Z,18.20
2019-04-14T04:32:22.988Z,17.60
2019-04-14T04:35:10.640Z,19.57
2019-04-14T04:37:56.318Z,16.77
2019-04-14T04:40:31.212Z,16.27
2019-04-14T04:43:03.822Z,17.87
2019-04-14T04:45:36.577Z,19.30
2019-04-14T04:48:09.087Z,18.57
2019-04-14T04:50:41.067Z,19.40
2019-04-14T04:53:13.724Z,17.20
2019-04-14T04:55:46.069Z,16.40
2019-04-14T04:58:17.777Z,17.43
2019-04-14T05:00:52.550Z,17.23
2019-04-14T05:03:23.552Z,18.93
2019-04-14T05:07:07.641Z,17.13
2019-04-14T05:09:57.785Z,17.30
2019-04-14T05:12:34.861Z,18.67
2019-04-14T05:15:25.599Z,18.73
2019-04-14T05:17:58.008Z,19.57
2019-04-14T05:20:31.282Z,19.67
2019-04-14T05:23:03.732Z,18.60
2019-04-14T05:25:36.587Z,20.70
2019-04-14T05:28:09.126Z,18.97
2019-04-14T05:30:41.519Z,19.77
2019-04-14T05:33:14.145Z,19.30
2019-04-14T05:35:46.716Z,19.27
2019-04-14T05:38:19.097Z,18.63
2019-04-14T05:40:52.400Z,19.97
2019-04-14T05:43:36.765Z,18.60
2019-04-14T05:45:57.431Z,21.80
2019-04-14T05:48:29.468Z,22.50
2019-04-14T05:51:02.056Z,20.40
2019-04-14T05:53:35.017Z,22.07
2019-04-14T05:56:07.843Z,21.13
2019-04-14T05:58:40.417Z,21.17
2019-04-14T06:01:13.813Z,19.87
2019-04-14T06:03:45.703Z,21.30
2019-04-14T06:06:18.090Z,20.50
2019-04-14T06:08:49.755Z,20.37
2019-04-14T06:11:21.473Z,20.57
2019-04-14T06:13:53.184Z,21.27
2019-04-14T06:16:24.843Z,22.63
2019-04-14T06:18:56.564Z,23.90
2019-04-14T06:21:28.830Z,22.87
2019-04-14T06:24:00.763Z,24.70
2019-04-14T06:26:32.477Z,22.17
2019-04-14T06:29:04.290Z,22.73
2019-04-14T06:31:55.861Z,22.67
2019-04-14T06:34:36.527Z,21.87
2019-04-14T06:37:30.875Z,22.97
2019-04-14T06:40:05.008Z,22.00
2019-04-14T06:42:36.761Z,24.60
2019-04-14T06:45:08.449Z,23.20
2019-04-14T06:47:40.151Z,23.40
2019-04-14T06:50:12.152Z,22.90
2019-04-14T06:52:44.801Z,24.10
2019-04-14T06:55:16.698Z,21.13
2019-04-14T06:57:48.515Z,24.60
2019-04-14T07:00:20.286Z,26.27
2019-04-14T07:02:52.042Z,27.47
2019-04-14T07:05:23.775Z,23.23
2019-04-14T07:07:57.229Z,21.67
2019-04-14T07:10:29.480Z,23.70
2019-04-14T07:13:01.350Z,24.20
2019-04-14T07:15:33.064Z,24.10
2019-04-14T07:18:04.945Z,23.17
2019-04-14T07:20:36.783Z,23.50
2019-04-14T07:23:09.196Z,21.50
2019-04-14T07:25:40.963Z,25.67
2019-04-14T07:28:12.635Z,25.50
2019-04-14T07:31:06.289Z,22.63
2019-04-14T07:33:49.980Z,23.30
2019-04-14T07:36:39.459Z,20.57
2019-04-14T07:39:30.811Z,23.10
2019-04-14T07:42:24.957Z,20.47
2019-04-14T07:45:02.621Z,20.20
2019-04-14T07:48:08.638Z,19.73
2019-04-14T07:50:59.231Z,23.17
2019-04-14T07:53:55.413Z,19.57
2019-04-14T07:56:44.769Z,22.33
2019-04-14T07:59:35.824Z,18.13
2019-04-14T08:02:22.994Z,18.87
2019-04-14T08:05:06.496Z,20.60
2019-04-14T08:07:38.337Z,22.13
2019-04-14T08:10:11.906Z,23.07
2019-04-14T08:12:43.588Z,20.00
2019-04-14T08:15:16.098Z,22.60
2019-04-14T08:17:47.856Z,21.17
2019-04-14T08:20:27.407Z,22.60
2019-04-14T08:22:54.348Z,22.00
2019-04-14T08:25:26.364Z,27.07
2019-04-14T08:27:58.078Z,23.30
2019-04-14T08:30:30.528Z,22.40
2019-04-14T08:33:02.209Z,20.77
2019-04-14T08:35:35.206Z,23.00
2019-04-14T08:38:06.958Z,23.60
2019-04-14T08:40:39.042Z,21.80
2019-04-14T08:43:32.382Z,19.93
2019-04-14T08:46:36.792Z,21.17
2019-04-14T08:49:30.268Z,19.13
2019-04-14T08:52:11.982Z,21.03
2019-04-14T08:54:53.893Z,22.17
2019-04-14T08:57:51.059Z,21.80
2019-04-14T09:00:37.636Z,21.67
2019-04-14T09:03:27.358Z,21.60
2019-04-14T09:06:12.103Z,22.20
2019-04-14T09:08:50.380Z,21.80
2019-04-14T09:11:28.399Z,21.80
2019-04-14T09:14:00.227Z,19.40
2019-04-14T09:16:32.024Z,19.10
2019-04-14T09:19:07.924Z,21.37
2019-04-14T09:21:37.996Z,22.03
2019-04-14T09:24:10.272Z,18.90
2019-04-14T09:26:42.027Z,19.50
2019-04-14T09:29:13.867Z,20.20
2019-04-14T09:31:45.625Z,18.23
2019-04-14T09:34:17.557Z,20.67
2019-04-14T09:36:49.698Z,19.50
2019-04-14T09:39:21.569Z,20.60
2019-04-14T09:41:53.684Z,18.30
2019-04-14T09:44:25.706Z,20.40
2019-04-14T09:46:57.451Z,21.33
2019-04-14T09:49:30.015Z,21.60
2019-04-14T09:52:02.454Z,20.43
2019-04-14T09:54:34.283Z,20.90
2019-04-14T09:57:06.276Z,24.80
2019-04-14T09:59:38.150Z,22.10
2019-04-14T10:02:10.000Z,22.93
2019-04-14T10:04:52.872Z,22.80
2019-04-14T10:07:27.148Z,20.17
2019-04-14T10:09:59.099Z,18.97
2019-04-14T10:12:30.956Z,18.37
2019-04-14T10:15:02.819Z,17.67
2019-04-14T10:17:44.874Z,20.17
2019-04-14T10:20:16.954Z,20.07
2019-04-14T10:22:49.780Z,19.77
2019-04-14T10:25:21.581Z,19.00
2019-04-14T10:27:54.856Z,20.57
2019-04-14T10:30:26.661Z,19.00
2019-04-14T10:32:58.908Z,20.83
2019-04-14T10:35:30.892Z,19.70
2019-04-14T10:38:02.636Z,18.87
2019-04-14T10:40:39.624Z,21.53
2019-04-14T10:43:13.265Z,20.40
2019-04-14T10:45:45.031Z,18.37
2019-04-14T10:48:16.935Z,18.73
2019-04-14T10:50:48.756Z,18.30
2019-04-14T10:53:20.866Z,25.40
2019-04-14T10:55:54.405Z,20.90
2019-04-14T10:58:26.300Z,22.73
2019-04-14T11:00:58.207Z,19.77
2019-04-14T11:03:29.944Z,18.80
2019-04-14T11:06:07.088Z,17.70
2019-04-14T11:08:38.876Z,17.73
2019-04-14T11:11:11.310Z,18.23
2019-04-14T11:13:43.144Z,16.90
2019-04-14T11:16:15.572Z,19.03
2019-04-14T11:18:47.335Z,17.07
2019-04-14T11:21:19.211Z,17.87
2019-04-14T11:23:50.966Z,17.20
2019-04-14T11:26:23.078Z,17.83
2019-04-14T11:28:54.772Z,18.67
2019-04-14T11:31:58.826Z,19.50
2019-04-14T11:34:37.217Z,19.40
2019-04-14T11:37:27.870Z,17.80
2019-04-14T11:39:59.638Z,18.50
2019-04-14T11:42:32.043Z,17.90
2019-04-14T11:45:04.525Z,16.97
2019-04-14T11:47:36.310Z,16.97
2019-04-14T11:50:08.749Z,18.90
2019-04-14T11:52:40.654Z,18.60
2019-04-14T11:55:12.805Z,16.17
2019-04-14T11:57:45.062Z,18.20
2019-04-14T12:00:41.959Z,17.57
2019-04-14T12:03:21.251Z,17.83
2019-04-14T12:06:10.958Z,18.00
2019-04-14T12:08:49.784Z,16.97
2019-04-14T12:11:21.534Z,15.90
2019-04-14T12:13:53.346Z,16.63
2019-04-14T12:16:25.748Z,16.90
2019-04-14T12:18:57.514Z,16.00
2019-04-14T12:21:29.218Z,17.00
2019-04-14T12:24:01.041Z,17.50
2019-04-14T12:26:32.866Z,15.37
2019-04-14T12:29:06.303Z,16.50
2019-04-14T12:31:39.738Z,15.10
2019-04-14T12:34:11.571Z,16.07
2019-04-14T12:36:43.637Z,15.87
2019-04-14T12:39:22.675Z,15.83
2019-04-14T12:42:05.618Z,14.90
2019-04-14T12:44:44.507Z,14.93
2019-04-14T12:47:39.903Z,15.23
2019-04-14T12:50:17.643Z,14.87
2019-04-14T12:52:49.406Z,14.27
2019-04-14T12:55:21.222Z,14.27
2019-04-14T12:57:55.820Z,12.87
2019-04-14T13:00:52.401Z,14.10
2019-04-14T13:03:25.682Z,14.10
2019-04-14T13:05:57.378Z,14.00
2019-04-14T13:08:29.179Z,12.27
2019-04-14T13:11:01.118Z,13.53
2019-04-14T13:13:32.854Z,13.53
2019-04-14T13:16:04.778Z,12.90
2019-04-14T13:18:36.960Z,12.90
2019-04-14T13:21:08.891Z,14.37
2019-04-14T13:23:40.619Z,12.30
2019-04-14T13:26:12.420Z,13.70
2019-04-14T13:28:44.201Z,13.00
2019-04-14T13:31:15.929Z,11.50
2019-04-14T13:33:48.088Z,11.20
2019-04-14T13:36:19.810Z,12.93
2019-04-14T13:38:51.828Z,11.40
2019-04-14T13:41:23.990Z,11.50
2019-04-14T13:43:55.735Z,13.27
2019-04-14T13:46:27.693Z,11.50
2019-04-14T13:48:59.876Z,11.10
2019-04-14T13:51:32.050Z,10.00
2019-04-14T13:54:04.283Z,10.57
2019-04-14T13:56:36.107Z,11.10
2019-04-14T13:59:07.870Z,11.10
2019-04-14T14:01:39.919Z,10.57
2019-04-14T14:04:11.796Z,10.20
2019-04-14T14:06:44.055Z,10.17
2019-04-14T14:09:15.990Z,10.27
2019-04-14T14:12:06.667Z,10.10
2019-04-14T14:14:57.387Z,9.97
2019-04-14T14:17:39.777Z,12.97
2019-04-14T14:20:38.711Z,10.60
2019-04-14T14:23:32.098Z,11.77
2019-04-14T14:26:07.542Z,11.67
2019-04-14T14:28:39.616Z,11.30
2019-04-14T14:31:11.385Z,10.30
2019-04-14T14:33:45.351Z,9.50
2019-04-14T14:36:17.008Z,9.90
2019-04-14T14:38:49.006Z,9.93
2019-04-14T14:46:45.388Z,10.70
2019-04-14T14:49:27.993Z,9.67
2019-04-14T14:52:07.117Z,10.50
2019-04-14T14:54:39.404Z,9.50
2019-04-14T14:57:12.167Z,9.43
2019-04-14T14:59:44.227Z,10.10
2019-04-14T15:02:16.281Z,9.90
2019-04-14T15:04:48.045Z,8.80
2019-04-14T15:07:19.956Z,10.23
2019-04-14T15:09:51.905Z,10.07
2019-04-14T15:12:24.348Z,10.53
2019-04-14T15:14:56.237Z,10.60
2019-04-14T15:17:28.683Z,8.90
2019-04-14T15:20:00.521Z,8.60
2019-04-14T15:22:32.429Z,9.27
2019-04-14T15:25:04.280Z,10.40
2019-04-14T15:27:36.969Z,10.30
2019-04-14T15:30:14.742Z,9.03
2019-04-14T15:32:46.598Z,8.30
2019-04-14T15:35:18.355Z,9.27
2019-04-14T15:37:50.207Z,9.17
2019-04-14T15:40:22.442Z,9.03
2019-04-14T15:42:54.640Z,10.17
2019-04-14T15:45:26.758Z,10.33
2019-04-14T15:47:58.535Z,10.07
2019-04-14T15:50:30.312Z,9.77
2019-04-14T15:53:02.154Z,8.90
2019-04-14T15:55:33.899Z,9.87
2019-04-14T15:58:23.990Z,9.00
2019-04-14T16:01:21.413Z,10.80
2019-04-14T16:04:12.349Z,9.03
2019-04-14T16:07:01.720Z,9.07
2019-04-14T16:09:52.390Z,9.73
2019-04-14T16:12:29.243Z,8.07
2019-04-14T16:15:11.838Z,10.17
2019-04-14T16:18:02.466Z,11.13
2019-04-14T16:20:36.669Z,10.57
2019-04-14T16:23:08.491Z,12.40
2019-04-14T16:26:04.396Z,10.40
2019-04-14T16:28:44.970Z,10.73
2019-04-14T16:31:36.191Z,9.67
2019-04-14T16:34:26.841Z,10.83
2019-04-14T16:36:58.758Z,10.53
2019-04-14T16:39:31.928Z,10.40
2019-04-14T16:42:04.043Z,11.10
2019-04-14T16:44:35.831Z,9.63
2019-04-14T16:47:07.583Z,9.90
2019-04-14T16:49:39.737Z,9.67
2019-04-14T16:52:34.671Z,9.63
2019-04-14T16:55:17.275Z,9.03
2019-04-14T16:58:00.562Z,8.47
2019-04-14T17:00:37.135Z,9.17
2019-04-14T17:03:09.255Z,9.57
2019-04-14T17:05:41.638Z,8.53
2019-04-14T17:08:13.565Z,8.70
2019-04-14T17:10:45.409Z,9.57
2019-04-14T17:13:17.345Z,9.00
2019-04-14T17:16:11.419Z,8.80
2019-04-14T17:18:53.762Z,8.97
2019-04-14T17:21:58.067Z,8.00
2019-04-14T17:25:00.857Z,8.20
2019-04-14T17:27:51.512Z,8.40
2019-04-14T17:30:37.806Z,9.80
2019-04-14T17:33:34.522Z,9.93
2019-04-14T17:36:28.250Z,10.47
2019-04-14T17:39:19.107Z,10.90
2019-04-14T17:41:56.776Z,10.80
2019-04-14T17:44:47.390Z,10.77
2019-04-14T17:47:37.286Z,11.00
2019-04-14T17:50:40.674Z,10.67
2019-04-14T17:53:29.890Z,10.50
2019-04-14T17:56:09.463Z,10.47
2019-04-14T17:58:51.606Z,10.37
2019-04-14T18:01:37.863Z,10.30
2019-04-14T18:04:20.003Z,10.00
2019-04-14T18:07:13.210Z,10.73
2019-04-14T18:10:00.271Z,8.90
2019-04-14T18:12:39.554Z,9.97
2019-04-14T18:15:42.163Z,10.77
2019-04-14T18:18:33.106Z,10.37
2019-04-14T18:21:07.329Z,10.40
2019-04-14T18:23:39.121Z,10.87
2019-04-14T18:26:11.039Z,11.70
2019-04-14T18:29:04.570Z,12.47
2019-04-14T18:31:42.240Z,11.30
2019-04-14T18:34:33.215Z,11.03
2019-04-14T18:37:32.746Z,11.40
2019-04-14T18:40:08.355Z,11.77
2019-04-14T18:42:58.630Z,11.37
2019-04-14T18:45:37.088Z,10.87
2019-04-14T18:48:20.976Z,10.40
2019-04-14T18:51:10.346Z,9.40
2019-04-14T18:54:04.352Z,10.63
2019-04-14T18:56:56.182Z,10.83
2019-04-14T18:59:41.811Z,10.60
2019-04-14T19:02:15.769Z,9.90
2019-04-14T19:04:47.852Z,10.10
2019-04-14T19:07:20.076Z,9.23
2019-04-14T19:09:52.285Z,9.93
2019-04-14T19:12:41.212Z,9.43
2019-04-14T19:15:38.301Z,9.17
2019-04-14T19:18:19.148Z,8.40
2019-04-14T19:20:57.702Z,10.10
2019-04-14T19:23:29.505Z,9.03
2019-04-14T19:26:01.629Z,9.60
2019-04-14T19:28:33.469Z,8.60
2019-04-14T19:31:05.518Z,9.00
2019-04-14T19:33:37.476Z,9.00
2019-04-14T19:36:09.378Z,9.93
2019-04-14T19:38:41.335Z,8.40
2019-04-14T19:41:17.329Z,8.77
2019-04-14T19:43:49.165Z,7.50
2019-04-14T19:46:20.963Z,8.13
2019-04-14T19:48:52.890Z,7.80
2019-04-14T19:51:25.015Z,8.23
2019-04-14T19:53:56.803Z,8.50
2019-04-14T19:56:29.757Z,7.90
2019-04-14T19:59:01.590Z,7.33
2019-04-14T20:01:33.448Z,8.33
2019-04-14T20:04:05.362Z,7.87
2019-04-14T20:06:37.214Z,8.50
2019-04-14T20:09:09.606Z,7.70
2019-04-14T20:11:41.779Z,6.90
2019-04-14T20:14:13.535Z,7.37
2019-04-14T20:17:10.349Z,7.30
2019-04-14T20:20:00.956Z,8.20
2019-04-14T20:22:51.718Z,7.13
2019-04-14T20:25:37.131Z,7.10
2019-04-14T20:28:34.262Z,7.93
2019-04-14T20:31:20.399Z,7.10
2019-04-14T20:33:52.449Z,7.70
2019-04-14T20:36:24.252Z,8.07
2019-04-14T20:38:56.135Z,7.07
2019-04-14T20:41:28.223Z,7.47
2019-04-14T20:44:01.942Z,8.20
2019-04-14T20:46:33.941Z,7.20
2019-04-14T20:49:06.040Z,7.20
2019-04-14T20:51:38.156Z,7.07
2019-04-14T20:54:10.044Z,7.23
2019-04-14T20:56:42.015Z,7.30
2019-04-14T20:59:14.355Z,6.67
2019-04-14T21:01:53.310Z,6.97
2019-04-14T21:04:40.173Z,6.83
2019-04-14T21:07:29.621Z,7.00
2019-04-14T21:10:10.344Z,6.70
2019-04-14T21:13:04.235Z,7.47
2019-04-14T21:15:46.953Z,7.40
2019-04-14T21:18:36.335Z,7.40
2019-04-14T21:21:32.983Z,6.23
2019-04-14T21:24:23.718Z,6.60
2019-04-14T21:27:05.987Z,7.17
2019-04-14T21:29:50.706Z,6.10
2019-04-14T21:32:32.531Z,6.90
2019-04-14T21:35:21.985Z,6.17
2019-04-14T21:37:58.587Z,6.70
2019-04-14T21:40:53.777Z,6.10
2019-04-14T21:43:25.883Z,6.60
2019-04-14T21:45:57.636Z,5.97
2019-04-14T21:48:29.374Z,6.53
2019-04-14T21:51:01.463Z,6.70
2019-04-14T21:53:33.467Z,6.30
2019-04-14T21:56:13.178Z,6.23
2019-04-14T21:59:15.860Z,7.20
2019-04-14T22:02:05.337Z,5.70
2019-04-14T22:04:56.491Z,5.90
2019-04-14T22:07:47.104Z,6.57
2019-04-14T22:10:38.651Z,5.23
2019-04-14T22:13:10.514Z,6.03
2019-04-14T22:15:42.237Z,5.87
2019-04-14T22:18:14.765Z,6.50
2019-04-14T22:20:46.482Z,7.27
2019-04-14T22:23:18.228Z,6.30
2019-04-14T22:25:50.371Z,7.37
2019-04-14T22:28:22.025Z,7.10
2019-04-14T22:30:53.714Z,7.00
2019-04-14T22:33:25.415Z,5.80
2019-04-14T22:35:57.161Z,7.70
2019-04-14T22:38:29.148Z,7.10
2019-04-14T22:41:01.498Z,6.87
2019-04-14T22:43:33.471Z,7.10
2019-04-14T22:46:05.465Z,6.90
2019-04-14T22:48:39.407Z,8.30
2019-04-14T22:51:10.764Z,7.67
2019-04-14T22:53:42.469Z,8.27
2019-04-14T22:56:14.374Z,8.33
2019-04-14T22:58:46.329Z,8.07
2019-04-14T23:01:24.818Z,7.57
2019-04-14T23:04:21.421Z,6.90
2019-04-14T23:07:23.437Z,7.23
2019-04-14T23:10:03.295Z,6.97
2019-04-14T23:12:54.362Z,6.90
2019-04-14T23:15:53.685Z,6.83
2019-04-14T23:18:33.245Z,6.87
2019-04-14T23:21:42.250Z,7.77
2019-04-14T23:24:16.527Z,7.60
2019-04-14T23:26:52.935Z,6.97
2019-04-14T23:29:22.008Z,7.67
2019-04-14T23:31:53.869Z,7.10
2019-04-14T23:34:26.298Z,6.93
2019-04-14T23:36:58.217Z,6.77
2019-04-14T23:39:31.359Z,6.97
2019-04-14T23:42:04.514Z,7.40
2019-04-14T23:44:39.176Z,6.77
2019-04-14T23:47:10.975Z,6.97
2019-04-14T23:49:43.204Z,7.90
2019-04-14T23:52:15.142Z,7.30
2019-04-14T23:54:47.210Z,8.37
2019-04-14T23:57:18.873Z,8.27
2019-04-14T23:59:50.744Z,7.87
